Time;durP1;ratioP1;P1;durP2;ratioP2;P2;SDS_P1;SDS_P2;PMS_P1;PMS_P2;Temp;Humidity;BMP_temperature;BMP_pressure;BME280_temperature;BME280_humidity;BME280_pressure;Samples;Min_cycle;Max_cycle;Signal;HPM_P1;HPM_P2
2023/05/14 00:01:08;;;;;;;3.17;2.22;;;;;;;;;;5026202;28;20516;-84
2023/05/14 00:03:35;;;;;;;3.92;2.17;;;;;;;;;;5019235;28;20026;-84
2023/05/14 00:06:01;;;;;;;4.82;2.40;;;;;;;;;;5027792;28;20021;-83
2023/05/14 00:08:28;;;;;;;3.88;2.05;;;;;;;;;;5020868;28;20072;-82
2023/05/14 00:10:54;;;;;;;2.10;1.50;;;;;;;;;;5029931;28;20029;-83
2023/05/14 00:13:19;;;;;;;4.97;2.42;;;;;;;;;;5027162;28;20018;-85
2023/05/14 00:15:45;;;;;;;6.38;2.05;;;;;;;;;;5027129;28;20034;-83
2023/05/14 00:18:11;;;;;;;3.80;1.67;;;;;;;;;;5024114;28;20025;-84
2023/05/14 00:20:37;;;;;;;3.22;1.73;;;;;;;;;;5019412;28;20041;-85
2023/05/14 00:23:04;;;;;;;3.85;1.55;;;8.40;99.90;;;;;;5023533;28;20501;-80
2023/05/14 00:25:30;;;;;;;3.00;1.50;;;;;;;;;;5025243;28;20493;-84
2023/05/14 00:27:56;;;;;;;3.47;1.85;;;;;;;;;;5030920;28;20048;-84
2023/05/14 00:30:22;;;;;;;3.25;1.92;;;;;;;;;;5022747;28;20032;-82
2023/05/14 00:32:48;;;;;;;3.92;1.90;;;;;;;;;;5025863;28;20069;-83
2023/05/14 00:35:14;;;;;;;2.65;1.35;;;;;;;;;;5015272;28;20717;-83
2023/05/14 00:37:40;;;;;;;4.10;1.95;;;;;;;;;;5022823;28;20029;-84
2023/05/14 00:40:07;;;;;;;13.95;3.75;;;;;;;;;;5028919;28;20638;-82
2023/05/14 00:42:33;;;;;;;3.47;1.95;;;;;;;;;;5018396;28;20092;-82
2023/05/14 00:44:59;;;;;;;2.88;1.52;;;;;;;;;;5025074;28;20218;-84
2023/05/14 00:47:25;;;;;;;3.47;1.70;;;;;;;;;;5021137;28;20037;-84
2023/05/14 00:49:51;;;;;;;5.72;2.20;;;;;;;;;;5020179;28;20041;-82
2023/05/14 00:52:17;;;;;;;9.02;2.42;;;;;;;;;;5023173;28;20037;-85
2023/05/14 00:54:44;;;;;;;4.32;2.17;;;;;;;;;;5024096;28;20524;-83
2023/05/14 00:57:10;;;;;;;2.22;1.33;;;;;;;;;;5025068;28;20040;-84
2023/05/14 00:59:39;;;;;;;3.33;1.95;;;;;;;;;;5026058;28;20120;-83
2023/05/14 01:02:05;;;;;;;4.70;2.15;;;;;;;;;;5023628;28;20025;-82
2023/05/14 01:04:31;;;;;;;5.88;2.45;;;;;;;;;;5025726;28;20029;-85
2023/05/14 01:07:16;;;;;;;5.80;2.25;;;;;;;;;;5022201;28;20108;-81
2023/05/14 01:09:58;;;;;;;3.45;2.05;;;7.10;99.90;;;;;;5024933;28;20032;-83
2023/05/14 01:12:46;;;;;;;2.17;1.60;;;8.20;99.90;;;;;;5020379;28;20037;-83
2023/05/14 01:15:20;;;;;;;2.30;1.50;;;;;;;;;;5017214;28;20117;-86
2023/05/14 01:17:53;;;;;;;4.65;1.80;;;7.90;99.90;;;;;;5021722;28;20482;-85
2023/05/14 01:20:20;;;;;;;2.63;1.35;;;;;;;;;;5022957;28;20116;-83
2023/05/14 01:22:46;;;;;;;4.25;2.42;;;;;;;;;;5015763;28;20506;-80
2023/05/14 01:25:12;;;;;;;3.63;1.63;;;;;;;;;;5023578;28;20037;-82
2023/05/14 01:27:42;;;;;;;2.67;1.83;;;;;;;;;;5018104;28;20045;-82
2023/05/14 01:30:12;;;;;;;4.03;1.75;;;;;;;;;;5015742;28;20126;-82
2023/05/14 01:32:39;;;;;;;4.68;2.03;;;;;;;;;;5028508;28;20657;-81
2023/05/14 01:35:06;;;;;;;4.20;2.30;;;;;;;;;;5026245;28;20108;-84
2023/05/14 01:37:32;;;;;;;4.03;2.70;;;;;;;;;;5019940;28;20026;-83
2023/05/14 01:39:58;;;;;;;6.68;2.55;;;;;;;;;;5032121;28;20025;-83
2023/05/14 01:42:24;;;;;;;8.68;2.80;;;;;;;;;;5019236;28;20896;-82
2023/05/14 01:44:50;;;;;;;3.25;2.00;;;;;;;;;;5021993;28;20038;-82
2023/05/14 01:47:16;;;;;;;2.38;1.67;;;;;;;;;;5017567;28;20042;-82
2023/05/14 01:49:42;;;;;;;4.13;2.13;;;;;;;;;;5018054;28;20029;-83
2023/05/14 01:52:08;;;;;;;4.13;1.75;;;;;;;;;;5030815;28;20029;-82
2023/05/14 01:54:34;;;;;;;3.33;1.80;;;;;;;;;;5024980;28;20040;-84
2023/05/14 01:57:01;;;;;;;2.60;1.05;;;;;;;;;;5019317;28;20033;-83
2023/05/14 01:59:28;;;;;;;3.58;1.45;;;;;;;;;;5021659;28;20036;-83
2023/05/14 02:01:54;;;;;;;3.88;1.27;;;;;;;;;;5025714;28;20029;-85
2023/05/14 02:04:20;;;;;;;2.45;1.45;;;;;;;;;;5040501;28;20041;-84
2023/05/14 02:06:46;;;;;;;2.17;1.30;;;;;;;;;;5020322;28;20498;-83
2023/05/14 02:09:12;;;;;;;6.10;1.83;;;;;;;;;;5028651;28;20044;-83
2023/05/14 02:11:38;;;;;;;4.50;1.73;;;;;;;;;;5024344;28;20075;-84
2023/05/14 02:14:04;;;;;;;4.53;2.30;;;;;;;;;;5023539;28;20045;-82
2023/05/14 02:16:30;;;;;;;5.07;2.38;;;;;;;;;;5023718;28;20025;-85
2023/05/14 02:18:56;;;;;;;3.67;1.67;;;;;;;;;;5026068;28;20097;-82
2023/05/14 02:21:22;;;;;;;2.72;1.65;;;;;;;;;;5027203;28;20037;-84
2023/05/14 02:23:49;;;;;;;2.95;1.88;;;;;;;;;;5024594;28;20041;-83
2023/05/14 02:26:15;;;;;;;5.35;2.28;;;;;;;;;;5025351;28;20040;-86
2023/05/14 02:28:41;;;;;;;6.05;2.35;;;;;;;;;;5035149;28;20037;-83
2023/05/14 02:31:06;;;;;;;4.97;2.40;;;;;;;;;;5021192;28;20025;-83
2023/05/14 02:33:32;;;;;;;4.10;2.20;;;;;;;;;;5026016;28;20026;-86
2023/05/14 02:35:58;;;;;;;7.05;1.95;;;;;;;;;;5025065;28;20025;-84
2023/05/14 02:38:26;;;;;;;3.95;1.80;;;;;;;;;;5033207;28;20092;-83
2023/05/14 02:40:52;;;;;;;3.67;2.15;;;;;;;;;;5023052;28;20025;-85
2023/05/14 02:43:18;;;;;;;2.83;1.50;;;;;;;;;;5026730;28;20026;-83
2023/05/14 02:45:43;;;;;;;4.78;2.20;;;6.90;99.90;;;;;;5025724;28;20017;-82
2023/05/14 02:48:09;;;;;;;3.83;2.08;;;;;;;;;;5029453;28;20024;-84
2023/05/14 02:50:35;;;;;;;2.78;1.90;;;;;;;;;;5015861;28;20013;-83
2023/05/14 02:53:01;;;;;;;3.17;1.95;;;;;;;;;;5022794;28;20542;-83
2023/05/14 02:55:27;;;;;;;4.55;2.42;;;;;;;;;;5037215;28;20440;-82
2023/05/14 02:57:53;;;;;;;3.22;1.52;;;;;;;;;;5022320;28;20112;-81
2023/05/14 03:00:19;;;;;;;50.63;17.58;;;;;;;;;;5026717;28;20031;-83
2023/05/14 03:02:45;;;;;;;44.53;16.35;;;;;;;;;;5030830;28;20065;-82
2023/05/14 03:05:10;;;;;;;47.65;17.17;;;7.00;99.90;;;;;;5021420;28;20026;-81
2023/05/14 03:07:36;;;;;;;37.80;16.27;;;;;;;;;;5026445;28;20048;-83
2023/05/14 03:10:03;;;;;;;44.35;16.63;;;;;;;;;;5024540;28;20033;-83
2023/05/14 03:12:29;;;;;;;31.90;11.90;;;;;;;;;;5022955;28;20037;-85
2023/05/14 03:14:55;;;;;;;26.05;10.40;;;;;;;;;;5018278;28;20482;-82
2023/05/14 03:17:21;;;;;;;10.95;5.03;;;;;;;;;;5023704;28;20056;-83
2023/05/14 03:19:47;;;;;;;9.15;3.30;;;;;;;;;;5029669;28;20026;-84
2023/05/14 03:22:13;;;;;;;5.47;2.75;;;;;;;;;;5023936;28;20490;-82
2023/05/14 03:24:39;;;;;;;4.72;3.58;;;;;;;;;;5031977;28;20442;-82
2023/05/14 03:27:05;;;;;;;4.55;2.85;;;;;;;;;;5026451;28;20034;-82
2023/05/14 03:29:32;;;;;;;4.68;2.35;;;;;;;;;;5027273;28;20029;-81
2023/05/14 03:31:58;;;;;;;4.90;2.83;;;;;;;;;;5025815;28;20102;-82
2023/05/14 03:34:24;;;;;;;5.13;2.78;;;;;;;;;;5027052;28;20045;-83
2023/05/14 03:36:49;;;;;;;4.55;2.17;;;7.20;99.90;;;;;;5028798;28;20029;-80
2023/05/14 03:39:18;;;;;;;4.22;2.30;;;;;;;;;;5018732;28;20033;-81
2023/05/14 03:41:45;;;;;;;6.57;2.05;;;;;;;;;;5020839;28;20029;-80
2023/05/14 03:44:11;;;;;;;6.95;2.92;;;;;;;;;;5021141;28;20123;-83
2023/05/14 03:46:37;;;;;;;6.18;2.63;;;;;;;;;;5020659;28;20034;-82
2023/05/14 03:49:03;;;;;;;3.55;2.15;;;;;;;;;;5019144;28;20029;-82
2023/05/14 03:51:30;;;;;;;3.83;2.08;;;;;;;;;;5024267;28;20037;-81
2023/05/14 03:53:57;;;;;;;3.30;1.90;;;;;;;;;;5020333;28;20028;-82
2023/05/14 03:56:23;;;;;;;35.67;8.50;;;;;;;;;;5017855;28;20538;-81
2023/05/14 03:58:49;;;;;;;34.92;9.45;;;;;;;;;;5021293;28;20572;-82
2023/05/14 04:01:15;;;;;;;34.67;8.85;;;;;;;;;;5015136;28;20041;-82
2023/05/14 04:03:41;;;;;;;19.52;6.05;;;;;;;;;;5022692;28;20489;-82
2023/05/14 04:06:07;;;;;;;13.70;5.50;;;;;;;;;;5019672;28;20045;-82
2023/05/14 04:08:33;;;;;;;12.48;5.18;;;;;;;;;;5018768;28;20040;-83
2023/05/14 04:10:59;;;;;;;9.20;3.35;;;;;;;;;;5024917;28;20049;-82
2023/05/14 04:13:25;;;;;;;6.72;3.72;;;;;;;;;;5023569;28;20021;-81
2023/05/14 04:15:51;;;;;;;20.45;5.93;;;;;;;;;;5016891;28;20037;-81
2023/05/14 04:18:17;;;;;;;11.73;3.53;;;;;;;;;;5016080;28;20445;-83
2023/05/14 04:20:43;;;;;;;6.25;3.65;;;;;;;;;;5020211;28;20034;-83
2023/05/14 04:23:09;;;;;;;5.85;2.67;;;;;;;;;;5021527;28;20080;-83
2023/05/14 04:25:35;;;;;;;8.07;2.78;;;;;;;;;;5024525;28;20117;-81
2023/05/14 04:28:01;;;;;;;8.13;3.22;;;;;;;;;;5016935;28;20042;-85
2023/05/14 04:30:27;;;;;;;6.18;3.25;;;;;;;;;;5020138;28;20179;-82
2023/05/14 04:32:53;;;;;;;6.35;3.08;;;;;;;;;;5019292;28;20402;-81
2023/05/14 04:35:20;;;;;;;7.63;3.83;;;;;;;;;;5020779;28;20091;-81
2023/05/14 04:37:46;;;;;;;6.32;2.95;;;;;;;;;;5023668;28;21397;-83
2023/05/14 04:40:12;;;;;;;6.82;3.70;;;;;;;;;;5030542;28;20028;-82
2023/05/14 04:42:38;;;;;;;4.90;3.08;;;;;;;;;;5023566;28;20037;-82
2023/05/14 04:45:05;;;;;;;5.90;2.50;;;;;;;;;;5020613;28;20034;-83
2023/05/14 04:47:31;;;;;;;5.95;2.55;;;;;;;;;;5021348;28;20025;-83
2023/05/14 04:49:57;;;;;;;7.63;3.45;;;;;;;;;;5020815;28;20034;-82
2023/05/14 04:52:23;;;;;;;7.70;3.78;;;;;;;;;;5025331;28;20033;-81
2023/05/14 04:54:49;;;;;;;5.47;2.75;;;;;;;;;;5020883;28;20047;-83
2023/05/14 04:57:15;;;;;;;6.30;3.83;;;;;;;;;;5016627;28;20055;-80
2023/05/14 04:59:41;;;;;;;4.55;3.08;;;;;;;;;;5030439;28;20022;-81
2023/05/14 05:02:07;;;;;;;5.80;3.78;;;;;;;;;;5027618;28;20013;-82
2023/05/14 05:04:33;;;;;;;5.43;3.00;;;;;;;;;;5025602;28;20027;-81
2023/05/14 05:06:59;;;;;;;4.88;3.15;;;;;;;;;;5024036;28;20017;-81
2023/05/14 05:09:25;;;;;;;5.00;2.75;;;;;;;;;;5014551;28;20087;-83
2023/05/14 05:11:51;;;;;;;6.00;3.05;;;;;;;;;;5012848;28;20501;-83
2023/05/14 05:14:17;;;;;;;5.22;2.60;;;;;;;;;;5025516;28;22725;-83
2023/05/14 05:16:43;;;;;;;5.63;2.30;;;;;;;;;;5014325;28;20068;-82
2023/05/14 05:19:10;;;;;;;6.47;2.95;;;;;;;;;;5020409;28;20021;-82
2023/05/14 05:21:38;;;;;;;5.82;3.13;;;;;;;;;;5018727;28;20033;-82
2023/05/14 05:24:04;;;;;;;6.85;3.38;;;;;;;;;;5022741;28;20029;-82
2023/05/14 05:26:30;;;;;;;3.35;2.45;;;;;;;;;;5027251;28;20449;-82
2023/05/14 05:28:56;;;;;;;5.97;3.40;;;;;;;;;;5019685;28;20044;-83
2023/05/14 05:31:22;;;;;;;12.77;5.13;;;;;;;;;;5020813;28;20026;-82
2023/05/14 05:33:48;;;;;;;7.85;4.45;;;;;;;;;;5023127;28;20525;-82
2023/05/14 05:36:14;;;;;;;10.52;5.32;;;;;;;;;;5023341;28;20092;-86
2023/05/14 05:38:40;;;;;;;7.10;4.18;;;;;;;;;;5023274;28;20029;-81
2023/05/14 05:41:06;;;;;;;5.13;2.83;;;;;;;;;;5023303;28;20210;-86
2023/05/14 05:43:33;;;;;;;5.75;3.30;;;;;;;;;;5019257;28;20037;-82
2023/05/14 05:45:59;;;;;;;4.30;2.38;;;;;;;;;;5023910;28;20025;-83
2023/05/14 05:48:25;;;;;;;5.88;3.25;;;;;;;;;;5023748;28;20032;-85
2023/05/14 05:50:52;;;;;;;5.15;3.10;;;;;;;;;;5029061;28;20936;-82
2023/05/14 05:53:18;;;;;;;6.35;3.33;;;;;;;;;;5022493;28;20041;-82
2023/05/14 05:55:44;;;;;;;6.15;3.20;;;;;;;;;;5024649;28;20056;-81
2023/05/14 05:58:09;;;;;;;5.25;3.10;;;12.60;99.90;;;;;;5024822;28;20029;-81
2023/05/14 06:00:36;;;;;;;6.95;3.25;;;;;;;;;;5019287;28;20022;-83
2023/05/14 06:03:01;;;;;;;4.32;2.45;;;14.40;99.90;;;;;;5022362;28;20068;-82
2023/05/14 06:05:27;;;;;;;6.47;3.45;;;;;;;;;;5025881;28;20112;-83
2023/05/14 06:07:53;;;;;;;5.10;2.45;;;;;;;;;;5024256;28;20034;-84
2023/05/14 06:10:19;;;;;;;7.82;2.70;;;;;;;;;;5018365;28;20033;-84
2023/05/14 06:12:45;;;;;;;7.03;2.28;;;;;;;;;;5027472;28;20025;-83
2023/05/14 06:15:11;;;;;;;6.28;3.03;;;;;;;;;;5018047;28;20079;-83
2023/05/14 06:17:38;;;;;;;4.40;2.30;;;;;;;;;;5023147;28;20028;-83
2023/05/14 06:20:04;;;;;;;2.92;2.03;;;21.50;99.90;;;;;;5023041;28;20105;-83
2023/05/14 06:22:30;;;;;;;3.63;2.13;;;;;;;;;;5024882;28;20517;-83
2023/05/14 06:24:56;;;;;;;4.85;2.38;;;;;;;;;;5016413;28;20555;-83
2023/05/14 06:27:22;;;;;;;4.68;2.50;;;;;;;;;;5014137;28;20526;-82
2023/05/14 06:29:48;;;;;;;2.75;1.83;;;;;;;;;;5020553;28;20683;-83
2023/05/14 06:32:15;;;;;;;3.75;2.15;;;;;;;;;;5023032;28;20022;-82
2023/05/14 06:34:41;;;;;;;5.05;2.75;;;;;;;;;;5028614;28;20500;-84
2023/05/14 06:37:08;;;;;;;3.30;2.03;;;;;;;;;;5025858;28;20038;-83
2023/05/14 06:39:34;;;;;;;3.95;2.67;;;;;;;;;;5024960;28;20041;-83
2023/05/14 06:42:00;;;;;;;3.40;2.10;;;;;;;;;;5024825;28;20048;-85
2023/05/14 06:44:26;;;;;;;7.07;3.67;;;;;;;;;;5033050;28;20549;-86
2023/05/14 06:46:52;;;;;;;4.35;2.28;;;;;;;;;;5027533;28;20114;-84
2023/05/14 06:49:18;;;;;;;4.05;2.35;;;;;;;;;;5018216;28;20104;-82
2023/05/14 06:51:44;;;;;;;4.63;2.70;;;;;;;;;;5016525;28;20033;-83
2023/05/14 06:54:10;;;;;;;4.30;2.00;;;;;;;;;;5019415;28;20029;-83
2023/05/14 06:56:36;;;;;;;2.40;1.73;;;;;;;;;;5025043;28;20049;-83
2023/05/14 06:59:02;;;;;;;3.17;1.92;;;;;;;;;;5018688;28;20026;-82
2023/05/14 07:01:29;;;;;;;3.50;1.90;;;;;;;;;;5022011;28;20021;-82
2023/05/14 07:03:55;;;;;;;2.95;1.85;;;;;;;;;;5034316;28;20044;-82
2023/05/14 07:06:21;;;;;;;3.60;2.00;;;24.60;80.60;;;;;;5021465;28;20041;-83
2023/05/14 07:08:47;;;;;;;4.60;2.58;;;;;;;;;;5020202;28;20030;-88
2023/05/14 07:11:13;;;;;;;3.88;2.25;;;;;;;;;;5020461;28;20037;-82
2023/05/14 07:13:39;;;;;;;7.63;2.50;;;;;;;;;;5013859;28;20018;-86
2023/05/14 07:16:07;;;;;;;3.50;2.03;;;20.50;86.20;;;;;;5016655;28;20018;-83
2023/05/14 07:18:34;;;;;;;3.70;2.20;;;;;;;;;;5018440;28;20018;-84
2023/05/14 07:21:00;;;;;;;5.53;2.58;;;;;;;;;;5032020;28;20032;-85
2023/05/14 07:23:26;;;;;;;3.60;1.83;;;;;;;;;;5024491;28;20026;-84
2023/05/14 07:25:52;;;;;;;5.88;2.33;;;;;;;;;;5020918;28;20058;-82
2023/05/14 07:28:18;;;;;;;4.95;2.03;;;;;;;;;;5028558;28;20108;-83
2023/05/14 07:30:44;;;;;;;5.55;2.70;;;;;;;;;;5026771;28;20485;-83
2023/05/14 07:33:10;;;;;;;5.03;2.85;;;;;;;;;;5039274;28;20030;-84
2023/05/14 07:35:36;;;;;;;4.15;2.53;;;;;;;;;;5032839;28;20075;-87
2023/05/14 07:38:04;;;;;;;5.93;2.75;;;;;;;;;;5023322;28;20021;-83
2023/05/14 07:40:30;;;;;;;12.68;5.55;;;;;;;;;;5027411;28;21923;-82
2023/05/14 07:42:56;;;;;;;5.75;3.10;;;;;;;;;;5030727;28;20030;-83
2023/05/14 07:45:22;;;;;;;9.15;4.57;;;;;;;;;;5022968;28;20060;-81
2023/05/14 07:47:50;;;;;;;7.63;3.47;;;;;;;;;;5026122;28;20492;-83
2023/05/14 07:50:17;;;;;;;9.15;3.83;;;;;;;;;;5023856;28;20030;-84
2023/05/14 07:52:43;;;;;;;5.20;2.58;;;;;;;;;;5019575;28;20062;-83
2023/05/14 07:55:09;;;;;;;9.70;2.45;;;19.10;93.30;;;;;;5022639;28;20021;-83
2023/05/14 07:57:36;;;;;;;4.78;2.47;;;;;;;;;;5022115;28;20401;-85
2023/05/14 08:00:02;;;;;;;6.25;2.58;;;;;;;;;;5023601;28;20076;-83
2023/05/14 08:02:28;;;;;;;5.07;2.28;;;;;;;;;;5026211;28;20714;-82
2023/05/14 08:04:54;;;;;;;6.32;3.22;;;;;;;;;;5024111;28;20034;-81
2023/05/14 08:07:20;;;;;;;3.95;2.15;;;;;;;;;;5026335;28;20033;-83
2023/05/14 08:09:46;;;;;;;7.82;2.10;;;;;;;;;;5029577;28;20037;-82
2023/05/14 08:12:12;;;;;;;9.27;2.85;;;;;;;;;;5037562;28;20036;-83
2023/05/14 08:14:38;;;;;;;4.47;3.00;;;;;;;;;;5030955;28;20025;-82
2023/05/14 08:17:04;;;;;;;4.68;2.88;;;;;;;;;;5028011;28;20490;-83
2023/05/14 08:19:30;;;;;;;4.82;2.85;;;;;;;;;;5026373;28;20100;-82
2023/05/14 08:21:56;;;;;;;5.55;2.90;;;;;;;;;;5025178;28;20084;-83
2023/05/14 08:24:22;;;;;;;5.90;3.08;;;;;;;;;;5020786;28;20033;-84
2023/05/14 08:26:48;;;;;;;5.72;2.67;;;;;;;;;;5023345;28;20065;-85
2023/05/14 08:29:14;;;;;;;5.00;2.83;;;;;;;;;;5025765;28;20033;-84
2023/05/14 08:31:41;;;;;;;5.57;3.28;;;;;;;;;;5027194;28;20481;-84
2023/05/14 08:34:06;;;;;;;7.38;2.47;;;;;;;;;;5026922;28;20089;-83
2023/05/14 08:36:32;;;;;;;4.75;2.80;;;;;;;;;;5027748;28;20063;-83
2023/05/14 08:38:58;;;;;;;4.43;2.40;;;;;;;;;;5026276;28;20029;-84
2023/05/14 08:41:25;;;;;;;4.07;2.20;;;;;;;;;;5025523;28;20029;-84
2023/05/14 08:44:00;;;;;;;5.88;2.95;;;;;;;;;;5027196;28;20034;-84
2023/05/14 08:46:29;;;;;;;4.45;2.35;;;;;;;;;;5025384;28;20108;-84
2023/05/14 08:49:03;;;;;;;5.30;3.03;;;;;;;;;;5023998;28;20110;-87
2023/05/14 08:51:29;;;;;;;3.40;2.03;;;;;;;;;;5025787;28;20121;-84
2023/05/14 08:53:56;;;;;;;5.05;2.60;;;;;;;;;;5029423;28;20025;-84
2023/05/14 08:56:22;;;;;;;5.82;3.38;;;;;;;;;;5026063;28;20079;-81
2023/05/14 08:58:48;;;;;;;5.40;2.97;;;;;;;;;;5032756;28;20025;-83
2023/05/14 09:01:14;;;;;;;4.78;2.60;;;;;;;;;;5023919;28;20027;-83
2023/05/14 09:03:40;;;;;;;4.28;2.78;;;;;;;;;;5027360;28;20064;-83
2023/05/14 09:06:07;;;;;;;5.30;3.17;;;;;;;;;;5021312;28;20026;-84
2023/05/14 09:08:35;;;;;;;7.20;3.33;;;;;;;;;;5023520;28;20084;-84
2023/05/14 09:11:01;;;;;;;10.35;3.00;;;;;;;;;;5020188;28;20030;-83
2023/05/14 09:13:27;;;;;;;7.72;2.95;;;;;;;;;;5028953;28;20044;-82
2023/05/14 09:15:53;;;;;;;9.07;2.75;;;;;;;;;;5025190;28;20095;-83
2023/05/14 09:18:19;;;;;;;5.75;2.90;;;;;;;;;;5022520;28;20444;-83
2023/05/14 09:20:46;;;;;;;5.40;2.88;;;;;;;;;;5007500;28;20034;-83
2023/05/14 09:23:12;;;;;;;4.57;2.58;;;;;;;;;;5019600;28;20038;-82
2023/05/14 09:25:38;;;;;;;9.05;3.92;;;19.20;99.90;;;;;;5019789;28;20046;-82
2023/05/14 09:28:08;;;;;;;8.00;5.57;;;;;;;;;;5022050;28;20028;-83
2023/05/14 09:30:35;;;;;;;5.32;3.10;;;;;;;;;;5024000;28;20026;-84
2023/05/14 09:33:02;;;;;;;4.75;2.75;;;;;;;;;;5020879;28;20030;-84
2023/05/14 09:35:28;;;;;;;4.65;3.15;;;;;;;;;;5024620;28;20017;-82
2023/05/14 09:37:55;;;;;;;6.38;3.58;;;;;;;;;;5023018;28;20045;-84
2023/05/14 09:40:22;;;;;;;5.90;2.70;;;17.70;99.90;;;;;;5023246;28;20036;-82
2023/05/14 09:42:49;;;;;;;5.10;2.80;;;;;;;;;;5019117;28;20516;-83
2023/05/14 09:45:15;;;;;;;4.75;2.92;;;;;;;;;;5025974;28;20033;-84
2023/05/14 09:47:41;;;;;;;3.72;2.60;;;;;;;;;;5024478;28;20072;-83
2023/05/14 09:50:07;;;;;;;4.47;2.70;;;18.30;99.90;;;;;;5024923;28;20026;-82
2023/05/14 09:52:34;;;;;;;5.20;2.95;;;17.30;99.90;;;;;;5021027;28;20120;-84
2023/05/14 09:55:00;;;;;;;4.93;2.80;;;;;;;;;;5036098;28;20017;-82
2023/05/14 09:57:26;;;;;;;6.68;3.22;;;;;;;;;;5026357;28;20025;-81
2023/05/14 09:59:53;;;;;;;6.88;3.40;;;;;;;;;;5021960;28;20032;-82
2023/05/14 10:02:23;;;;;;;4.45;3.13;;;;;;;;;;5026218;28;20037;-81
2023/05/14 10:04:50;;;;;;;4.43;2.47;;;;;;;;;;5029869;28;20378;-82
2023/05/14 10:07:21;;;;;;;6.85;2.97;;;16.60;99.90;;;;;;5019709;28;20034;-84
2023/05/14 10:09:47;;;;;;;8.07;3.78;;;;;;;;;;5024227;28;20453;-80
2023/05/14 10:12:14;;;;;;;;;;;;;;;;;;5018811;28;20041;-81
2023/05/14 10:14:43;;;;;;;4.03;2.55;;;;;;;;;;5026000;28;19916;-81
2023/05/14 10:17:16;;;;;;;2.95;2.00;;;17.00;99.90;;;;;;5029267;28;20026;-83
2023/05/14 10:19:53;;;;;;;17.98;8.10;;;16.90;99.90;;;;;;5044176;28;20026;-85
2023/05/14 10:22:24;;;;;;;7.25;3.70;;;;;;;;;;5046423;28;20026;-82
2023/05/14 10:24:51;;;;;;;5.45;2.83;;;;;;;;;;5049658;28;20929;-85
2023/05/14 10:27:19;;;;;;;5.43;3.70;;;;;;;;;;5045372;28;20042;-84
2023/05/14 10:29:52;;;;;;;7.40;4.07;;;;;;;;;;5050165;28;20026;-84
2023/05/14 10:32:18;;;;;;;;;;;;;;;;;;5034375;28;20377;-82
2023/05/14 10:34:44;;;;;;;4.13;2.00;;;;;;;;;;5032160;28;19909;-82
2023/05/14 10:37:21;;;;;;;5.07;2.22;;;18.60;99.90;;;;;;5032557;28;20037;-81
2023/05/14 10:39:48;;;;;;;;;;;19.20;99.90;;;;;;5041867;28;20033;-80
2023/05/14 10:42:26;;;;;;;4.15;2.42;;;;;;;;;;5032780;28;19959;-81
2023/05/14 10:44:57;;;;;;;5.50;2.63;;;;;;;;;;5033369;28;20052;-83
2023/05/14 10:47:23;;;;;;;9.35;5.32;;;;;;;;;;5034116;28;20022;-82
2023/05/14 10:49:49;;;;;;;8.30;3.05;;;;;;;;;;5030756;28;20037;-82
2023/05/14 10:52:19;;;;;;;8.95;3.78;;;18.20;99.60;;;;;;5035585;28;20042;-82
2023/05/14 10:54:56;;;;;;;7.47;3.15;;;;;;;;;;5034497;28;20494;-83
2023/05/14 10:57:25;;;;;;;4.30;2.70;;;18.40;98.50;;;;;;5030474;28;20025;-85
2023/05/14 10:59:55;;;;;;;4.18;2.03;;;;;;;;;;5031773;28;20481;-83
2023/05/14 11:02:24;;;;;;;4.05;2.20;;;;;;;;;;5032116;28;20034;-83
2023/05/14 11:04:53;;;;;;;2.50;1.65;;;19.50;99.00;;;;;;5033001;28;20025;-83
2023/05/14 11:07:23;;;;;;;3.08;1.95;;;19.30;99.70;;;;;;5032775;28;20099;-82
2023/05/14 11:09:50;;;;;;;9.73;3.60;;;;;;;;;;5027206;28;20033;-83
2023/05/14 11:12:17;;;;;;;4.80;2.55;;;19.60;99.00;;;;;;5031206;28;20038;-83
2023/05/14 11:14:43;;;;;;;4.10;2.03;;;;;;;;;;5032614;28;20041;-81
2023/05/14 11:17:09;;;;;;;4.65;2.55;;;;;;;;;;5032691;28;20520;-82
2023/05/14 11:19:35;;;;;;;5.65;2.75;;;18.50;98.40;;;;;;5025658;28;20018;-82
2023/05/14 11:22:01;;;;;;;5.07;3.13;;;;;;;;;;5033305;28;20044;-84
2023/05/14 11:24:27;;;;;;;4.10;2.70;;;;;;;;;;5025811;28;20151;-83
2023/05/14 11:26:54;;;;;;;5.53;3.38;;;;;;;;;;5037174;28;20029;-84
2023/05/14 11:29:20;;;;;;;4.60;2.45;;;18.80;99.90;;;;;;5031717;28;20912;-82
2023/05/14 11:31:46;;;;;;;5.05;2.55;;;17.40;99.00;;;;;;5030683;28;20029;-82
2023/05/14 11:34:12;;;;;;;3.63;2.17;;;;;;;;;;5037866;28;20018;-80
2023/05/14 11:36:38;;;;;;;5.70;2.95;;;;;;;;;;5039015;28;20027;-81
2023/05/14 11:39:04;;;;;;;6.28;2.55;;;;;;;;;;5035022;28;20029;-81
2023/05/14 11:41:30;;;;;;;4.30;2.63;;;;;;;;;;5030130;28;20052;-82
2023/05/14 11:43:57;;;;;;;3.72;2.45;;;17.40;99.90;;;;;;5035119;28;20026;-81
2023/05/14 11:46:24;;;;;;;4.63;2.10;;;;;;;;;;5033349;28;20395;-82
2023/05/14 11:48:50;;;;;;;5.10;2.53;;;;;;;;;;5033367;28;20025;-81
2023/05/14 11:51:16;;;;;;;4.88;2.63;;;18.10;99.90;;;;;;5038653;28;20028;-81
2023/05/14 11:53:42;;;;;;;3.90;2.25;;;;;;;;;;5030915;28;20050;-82
2023/05/14 11:56:08;;;;;;;7.55;2.72;;;;;;;;;;5032645;28;20040;-84
2023/05/14 11:58:34;;;;;;;5.18;1.92;;;;;;;;;;5036430;28;20454;-83
2023/05/14 12:01:00;;;;;;;5.45;2.53;;;;;;;;;;5037711;28;20029;-83
2023/05/14 12:03:28;;;;;;;6.78;3.60;;;;;;;;;;5028422;28;20021;-82
2023/05/14 12:05:57;;;;;;;4.20;2.15;;;;;;;;;;5034623;28;20041;-83
2023/05/14 12:08:28;;;;;;;4.65;2.47;;;18.70;98.80;;;;;;5035403;28;20041;-81
2023/05/14 12:10:55;;;;;;;7.95;4.40;;;;;;;;;;5029777;28;20160;-82
2023/05/14 12:13:21;;;;;;;4.97;3.13;;;;;;;;;;5035644;28;20029;-82
2023/05/14 12:15:53;;;;;;;7.63;3.85;;;18.80;99.80;;;;;;5028965;28;20026;-84
2023/05/14 12:18:19;;;;;;;6.82;3.10;;;;;;;;;;5036887;28;20041;-81
2023/05/14 12:20:50;;;;;;;4.03;2.45;;;19.70;98.30;;;;;;5028584;28;20034;-83
2023/05/14 12:23:16;;;;;;;4.40;2.35;;;;;;;;;;5036971;28;20060;-82
2023/05/14 12:25:50;;;;;;;3.85;2.55;;;19.30;96.50;;;;;;5030325;28;20025;-82
2023/05/14 12:28:16;;;;;;;5.18;2.50;;;;;;;;;;5036076;28;20519;-82
2023/05/14 12:30:42;;;;;;;7.13;2.92;;;;;;;;;;5031081;28;20029;-83
2023/05/14 12:33:08;;;;;;;4.80;2.83;;;;;;;;;;5030254;28;20040;-81
2023/05/14 12:35:35;;;;;;;3.88;1.98;;;19.10;98.40;;;;;;5035783;28;20026;-80
2023/05/14 12:38:02;;;;;;;3.80;1.92;;;;;;;;;;5034965;28;20536;-82
2023/05/14 12:40:28;;;;;;;3.88;2.05;;;;;;;;;;5027521;28;20009;-81
2023/05/14 12:42:54;;;;;;;2.95;2.10;;;;;;;;;;5034172;28;20057;-82
2023/05/14 12:45:20;;;;;;;6.57;2.88;;;;;;;;;;5032828;28;20036;-83
2023/05/14 12:47:46;;;;;;;5.13;2.80;;;;;;;;;;5033141;28;20108;-83
2023/05/14 12:50:12;;;;;;;4.15;1.90;;;;;;;;;;5035317;28;20490;-84
2023/05/14 12:52:38;;;;;;;7.20;3.20;;;;;;;;;;5033039;28;20500;-82
2023/05/14 12:55:04;;;;;;;4.88;2.63;;;19.50;96.40;;;;;;5036264;28;20033;-82
2023/05/14 12:57:30;;;;;;;4.35;1.85;;;;;;;;;;5034795;28;20380;-82
2023/05/14 12:59:56;;;;;;;4.97;2.72;;;;;;;;;;5034280;28;20080;-86
2023/05/14 13:02:22;;;;;;;3.88;2.28;;;;;;;;;;5030969;28;20037;-81
2023/05/14 13:04:48;;;;;;;4.78;2.38;;;;;;;;;;5032441;28;20032;-81
2023/05/14 13:07:14;;;;;;;5.95;3.00;;;19.80;99.90;;;;;;5037825;28;20275;-83
2023/05/14 13:09:40;;;;;;;3.25;2.05;;;;;;;;;;5029063;28;21699;-83
2023/05/14 13:12:06;;;;;;;3.70;2.03;;;;;;;;;;5021943;28;20025;-83
2023/05/14 13:14:32;;;;;;;4.90;2.38;;;21.50;99.90;;;;;;5030891;28;20528;-82
2023/05/14 13:16:58;;;;;;;4.32;1.85;;;;;;;;;;5026250;28;20481;-79
2023/05/14 13:19:24;;;;;;;5.07;2.22;;;;;;;;;;5024806;28;20069;-83
2023/05/14 13:21:50;;;;;;;3.00;1.38;;;;;;;;;;5018869;28;20040;-84
2023/05/14 13:24:16;;;;;;;3.58;1.83;;;;;;;;;;5010778;28;20666;-84
2023/05/14 13:26:43;;;;;;;3.88;1.50;;;;;;;;;;5017553;28;22346;-84
2023/05/14 13:29:10;;;;;;;3.80;2.38;;;;;;;;;;5024154;28;20449;-79
2023/05/14 13:31:36;;;;;;;4.28;2.30;;;;;;;;;;5030726;28;20103;-82
2023/05/14 13:34:02;;;;;;;4.78;1.38;;;;;;;;;;5020899;28;20028;-85
2023/05/14 13:36:31;;;;;;;2.20;1.50;;;;;;;;;;5033332;28;20463;-83
2023/05/14 13:38:57;;;;;;;2.83;1.77;;;;;;;;;;5025479;28;20061;-83
2023/05/14 13:41:22;;;;;;;3.55;1.63;;;;;;;;;;5013978;28;20446;-82
2023/05/14 13:43:48;;;;;;;3.05;1.50;;;;;;;;;;5020183;28;20138;-82
2023/05/14 13:46:14;;;;;;;3.83;2.00;;;20.80;99.90;;;;;;5019567;28;20128;-82
2023/05/14 13:48:40;;;;;;;4.68;2.15;;;;;;;;;;5028032;28;20034;-83
2023/05/14 13:51:06;;;;;;;2.53;1.38;;;;;;;;;;5028294;28;20068;-83
2023/05/14 13:53:32;;;;;;;2.25;1.27;;;;;;;;;;5022278;28;20060;-83
2023/05/14 13:56:00;;;;;;;2.28;1.20;;;;;;;;;;5014638;28;20072;-84
2023/05/14 13:58:27;;;;;;;3.20;1.38;;;;;;;;;;5022692;28;20079;-83
2023/05/14 14:00:53;;;;;;;8.23;2.03;;;;;;;;;;5011878;28;20029;-82
2023/05/14 14:03:19;;;;;;;3.25;1.67;;;;;;;;;;5018911;28;20565;-82
2023/05/14 14:05:45;;;;;;;4.18;2.00;;;;;;;;;;5018774;28;20029;-83
2023/05/14 14:08:11;;;;;;;4.80;2.13;;;;;;;;;;5026281;28;20029;-82
2023/05/14 14:10:39;;;;;;;3.67;2.42;;;;;;;;;;5019030;28;20551;-83
2023/05/14 14:13:06;;;;;;;3.65;1.90;;;;;;;;;;5006451;28;20468;-83
2023/05/14 14:15:32;;;;;;;4.05;2.22;;;;;;;;;;5025813;28;20034;-81
2023/05/14 14:17:58;;;;;;;2.30;1.55;;;;;;;;;;5021804;28;20512;-82
2023/05/14 14:20:24;;;;;;;2.63;1.48;;;;;;;;;;5016418;28;20038;-81
2023/05/14 14:22:50;;;;;;;3.30;1.60;;;;;;;;;;5023116;28;20370;-81
2023/05/14 14:25:16;;;;;;;3.67;1.58;;;;;;;;;;5026075;28;20921;-81